Terminal Aerodrome Forecast
Issued by NWS Anchorage, AK

Home | Current Version | Previous Version | Text Only | Print | Product List | Glossary On
Versions: 1 2 3 4 5 6 7 8 9 10 11 12 13 14 15 16 17
000
FTAK31 PANC 241957 AAB
TAFANC
TAF AMD
PANC 241957Z 2420/2524 29005KT P6SM FEW040 SCT050
     FM242100 27006KT P6SM SCT045 BKN200
     FM250300 18006KT P6SM BKN045
     FM251800 14006KT P6SM SCT050 BKN100=

USA.gov is the U.S. government's official web portal to all federal, state and local government web resources and services.